sensor_id;sensor_type;location;lat;lon;timestamp;temperature;humidity
44166;DHT22;30476;53.468;9.826;2023-11-19T00:00:47;7.90;99.90
44166;DHT22;30476;53.468;9.826;2023-11-19T00:03:13;7.90;99.90
44166;DHT22;30476;53.468;9.826;2023-11-19T00:05:39;7.90;99.90
44166;DHT22;30476;53.468;9.826;2023-11-19T00:08:05;7.90;99.90
44166;DHT22;30476;53.468;9.826;2023-11-19T00:10:32;7.90;99.90
44166;DHT22;30476;53.468;9.826;2023-11-19T00:12:57;7.90;99.90
44166;DHT22;30476;53.468;9.826;2023-11-19T00:15:23;7.90;99.90
44166;DHT22;30476;53.468;9.826;2023-11-19T00:17:49;7.90;99.90
44166;DHT22;30476;53.468;9.826;2023-11-19T00:20:17;7.90;99.90
44166;DHT22;30476;53.468;9.826;2023-11-19T00:22:43;7.90;99.90
44166;DHT22;30476;53.468;9.826;2023-11-19T00:25:10;7.90;99.90
44166;DHT22;30476;53.468;9.826;2023-11-19T00:27:36;7.90;99.90
44166;DHT22;30476;53.468;9.826;2023-11-19T00:30:06;7.90;99.90
44166;DHT22;30476;53.468;9.826;2023-11-19T00:32:34;7.80;99.90
44166;DHT22;30476;53.468;9.826;2023-11-19T00:35:01;7.80;99.90
44166;DHT22;30476;53.468;9.826;2023-11-19T00:37:28;7.90;99.90
44166;DHT22;30476;53.468;9.826;2023-11-19T00:39:54;7.90;99.90
44166;DHT22;30476;53.468;9.826;2023-11-19T00:42:22;7.90;99.90
44166;DHT22;30476;53.468;9.826;2023-11-19T00:44:49;7.90;99.90
44166;DHT22;30476;53.468;9.826;2023-11-19T00:47:15;8.00;99.90
44166;DHT22;30476;53.468;9.826;2023-11-19T00:49:40;7.90;99.90
44166;DHT22;30476;53.468;9.826;2023-11-19T00:52:06;7.90;99.90
44166;DHT22;30476;53.468;9.826;2023-11-19T00:54:32;7.90;99.90
44166;DHT22;30476;53.468;9.826;2023-11-19T00:56:58;8.00;99.90
44166;DHT22;30476;53.468;9.826;2023-11-19T00:59:24;8.00;99.90
44166;DHT22;30476;53.468;9.826;2023-11-19T01:01:50;8.00;99.90
44166;DHT22;30476;53.468;9.826;2023-11-19T01:04:17;8.00;99.90
44166;DHT22;30476;53.468;9.826;2023-11-19T01:06:42;8.00;99.90
44166;DHT22;30476;53.468;9.826;2023-11-19T01:09:09;8.00;99.90
44166;DHT22;30476;53.468;9.826;2023-11-19T01:11:35;8.00;99.90
44166;DHT22;30476;53.468;9.826;2023-11-19T01:14:01;8.00;99.90
44166;DHT22;30476;53.468;9.826;2023-11-19T01:16:27;8.00;99.90
44166;DHT22;30476;53.468;9.826;2023-11-19T01:18:53;8.00;99.90
44166;DHT22;30476;53.468;9.826;2023-11-19T01:21:19;8.00;99.90
44166;DHT22;30476;53.468;9.826;2023-11-19T01:23:45;8.10;99.90
44166;DHT22;30476;53.468;9.826;2023-11-19T01:26:12;8.10;99.90
44166;DHT22;30476;53.468;9.826;2023-11-19T01:28:41;8.10;99.90
44166;DHT22;30476;53.468;9.826;2023-11-19T01:31:15;8.10;99.90
44166;DHT22;30476;53.468;9.826;2023-11-19T01:33:41;8.10;99.90
44166;DHT22;30476;53.468;9.826;2023-11-19T01:36:07;8.10;99.90
44166;DHT22;30476;53.468;9.826;2023-11-19T01:38:34;8.10;99.90
44166;DHT22;30476;53.468;9.826;2023-11-19T01:41:00;8.10;99.90
44166;DHT22;30476;53.468;9.826;2023-11-19T01:46:01;8.10;99.90
44166;DHT22;30476;53.468;9.826;2023-11-19T01:48:29;8.10;99.90
44166;DHT22;30476;53.468;9.826;2023-11-19T01:50:55;8.20;99.90
44166;DHT22;30476;53.468;9.826;2023-11-19T01:53:22;8.10;99.90
44166;DHT22;30476;53.468;9.826;2023-11-19T01:55:49;8.20;99.90
44166;DHT22;30476;53.468;9.826;2023-11-19T01:58:16;8.20;99.90
44166;DHT22;30476;53.468;9.826;2023-11-19T02:00:44;8.20;99.90
44166;DHT22;30476;53.468;9.826;2023-11-19T02:03:10;8.20;99.90
44166;DHT22;30476;53.468;9.826;2023-11-19T02:05:37;8.20;99.90
44166;DHT22;30476;53.468;9.826;2023-11-19T02:08:04;8.20;99.90
44166;DHT22;30476;53.468;9.826;2023-11-19T02:10:30;8.20;99.90
44166;DHT22;30476;53.468;9.826;2023-11-19T02:12:58;8.20;99.90
44166;DHT22;30476;53.468;9.826;2023-11-19T02:15:24;8.20;99.90
44166;DHT22;30476;53.468;9.826;2023-11-19T02:17:53;8.30;99.90
44166;DHT22;30476;53.468;9.826;2023-11-19T02:20:18;8.30;99.90
44166;DHT22;30476;53.468;9.826;2023-11-19T02:22:46;8.30;99.90
44166;DHT22;30476;53.468;9.826;2023-11-19T02:25:19;8.30;99.90
44166;DHT22;30476;53.468;9.826;2023-11-19T02:27:53;8.30;99.90
44166;DHT22;30476;53.468;9.826;2023-11-19T02:30:23;8.30;99.90
44166;DHT22;30476;53.468;9.826;2023-11-19T02:32:53;8.30;99.90
44166;DHT22;30476;53.468;9.826;2023-11-19T02:35:19;8.30;99.90
44166;DHT22;30476;53.468;9.826;2023-11-19T02:37:47;8.30;99.90
44166;DHT22;30476;53.468;9.826;2023-11-19T02:40:13;8.40;99.90
44166;DHT22;30476;53.468;9.826;2023-11-19T02:42:39;8.40;99.90
44166;DHT22;30476;53.468;9.826;2023-11-19T02:45:05;8.40;99.90
44166;DHT22;30476;53.468;9.826;2023-11-19T02:47:32;8.40;99.90
44166;DHT22;30476;53.468;9.826;2023-11-19T02:49:57;8.50;99.90
44166;DHT22;30476;53.468;9.826;2023-11-19T02:52:23;8.50;99.90
44166;DHT22;30476;53.468;9.826;2023-11-19T02:54:56;8.50;99.90
44166;DHT22;30476;53.468;9.826;2023-11-19T02:57:22;8.50;99.90
44166;DHT22;30476;53.468;9.826;2023-11-19T02:59:48;8.50;99.90
44166;DHT22;30476;53.468;9.826;2023-11-19T03:02:14;8.50;99.90
44166;DHT22;30476;53.468;9.826;2023-11-19T03:04:41;8.60;99.90
44166;DHT22;30476;53.468;9.826;2023-11-19T03:07:09;8.60;99.90
44166;DHT22;30476;53.468;9.826;2023-11-19T03:09:35;8.70;99.90
44166;DHT22;30476;53.468;9.826;2023-11-19T03:12:01;8.70;99.90
44166;DHT22;30476;53.468;9.826;2023-11-19T03:14:27;8.70;99.90
44166;DHT22;30476;53.468;9.826;2023-11-19T03:16:53;8.80;99.90
44166;DHT22;30476;53.468;9.826;2023-11-19T03:19:19;8.80;99.90
44166;DHT22;30476;53.468;9.826;2023-11-19T03:21:45;8.80;99.90
44166;DHT22;30476;53.468;9.826;2023-11-19T03:24:13;8.80;99.90
44166;DHT22;30476;53.468;9.826;2023-11-19T03:26:38;8.80;99.90
44166;DHT22;30476;53.468;9.826;2023-11-19T03:29:04;8.80;99.90
44166;DHT22;30476;53.468;9.826;2023-11-19T03:31:30;8.90;99.90
44166;DHT22;30476;53.468;9.826;2023-11-19T03:33:56;8.90;99.90
44166;DHT22;30476;53.468;9.826;2023-11-19T03:36:22;8.90;99.90
44166;DHT22;30476;53.468;9.826;2023-11-19T03:38:48;9.00;99.90
44166;DHT22;30476;53.468;9.826;2023-11-19T03:41:14;9.00;99.90
44166;DHT22;30476;53.468;9.826;2023-11-19T03:43:40;9.00;99.90
44166;DHT22;30476;53.468;9.826;2023-11-19T03:46:20;9.10;99.90
44166;DHT22;30476;53.468;9.826;2023-11-19T03:48:49;9.10;99.90
44166;DHT22;30476;53.468;9.826;2023-11-19T03:51:16;9.20;99.90
44166;DHT22;30476;53.468;9.826;2023-11-19T03:53:43;9.20;99.90
44166;DHT22;30476;53.468;9.826;2023-11-19T03:56:09;9.30;99.90
44166;DHT22;30476;53.468;9.826;2023-11-19T03:58:38;9.30;99.90
44166;DHT22;30476;53.468;9.826;2023-11-19T04:01:05;9.30;99.90
44166;DHT22;30476;53.468;9.826;2023-11-19T04:03:31;9.40;99.90
44166;DHT22;30476;53.468;9.826;2023-11-19T04:05:57;9.40;99.90
44166;DHT22;30476;53.468;9.826;2023-11-19T04:08:23;9.40;99.90
44166;DHT22;30476;53.468;9.826;2023-11-19T04:10:48;9.40;99.90
44166;DHT22;30476;53.468;9.826;2023-11-19T04:13:14;9.50;99.90
44166;DHT22;30476;53.468;9.826;2023-11-19T04:15:40;9.50;99.90
44166;DHT22;30476;53.468;9.826;2023-11-19T04:18:06;9.50;99.90
44166;DHT22;30476;53.468;9.826;2023-11-19T04:20:31;9.60;99.90
44166;DHT22;30476;53.468;9.826;2023-11-19T04:22:57;9.60;99.90
44166;DHT22;30476;53.468;9.826;2023-11-19T04:25:23;9.70;99.90
44166;DHT22;30476;53.468;9.826;2023-11-19T04:27:51;9.60;99.90
44166;DHT22;30476;53.468;9.826;2023-11-19T04:30:18;9.70;99.90
44166;DHT22;30476;53.468;9.826;2023-11-19T04:32:44;9.70;99.90
44166;DHT22;30476;53.468;9.826;2023-11-19T04:35:10;9.80;99.90
44166;DHT22;30476;53.468;9.826;2023-11-19T04:37:36;9.80;99.90
44166;DHT22;30476;53.468;9.826;2023-11-19T04:40:03;9.80;99.90
44166;DHT22;30476;53.468;9.826;2023-11-19T04:42:29;9.90;99.90
44166;DHT22;30476;53.468;9.826;2023-11-19T04:44:55;9.90;99.90
44166;DHT22;30476;53.468;9.826;2023-11-19T04:47:21;10.00;99.90
44166;DHT22;30476;53.468;9.826;2023-11-19T04:49:47;10.10;99.90
44166;DHT22;30476;53.468;9.826;2023-11-19T04:52:12;10.10;99.90
44166;DHT22;30476;53.468;9.826;2023-11-19T04:54:42;10.10;99.90
44166;DHT22;30476;53.468;9.826;2023-11-19T04:57:09;10.10;99.90
44166;DHT22;30476;53.468;9.826;2023-11-19T04:59:38;10.20;99.90
44166;DHT22;30476;53.468;9.826;2023-11-19T05:02:04;10.30;99.90
44166;DHT22;30476;53.468;9.826;2023-11-19T05:04:31;10.30;99.90
44166;DHT22;30476;53.468;9.826;2023-11-19T05:06:57;10.40;99.90
44166;DHT22;30476;53.468;9.826;2023-11-19T05:09:23;10.40;99.90
44166;DHT22;30476;53.468;9.826;2023-11-19T05:11:48;10.50;99.90
44166;DHT22;30476;53.468;9.826;2023-11-19T05:14:14;10.50;99.90
44166;DHT22;30476;53.468;9.826;2023-11-19T05:16:41;10.60;99.90
44166;DHT22;30476;53.468;9.826;2023-11-19T05:19:07;10.60;99.90
44166;DHT22;30476;53.468;9.826;2023-11-19T05:21:32;10.70;99.90
44166;DHT22;30476;53.468;9.826;2023-11-19T05:23:58;10.70;99.90
44166;DHT22;30476;53.468;9.826;2023-11-19T05:26:24;10.80;99.90
44166;DHT22;30476;53.468;9.826;2023-11-19T05:28:50;10.80;99.90
44166;DHT22;30476;53.468;9.826;2023-11-19T05:31:17;10.80;99.90
44166;DHT22;30476;53.468;9.826;2023-11-19T05:33:43;10.90;99.90
44166;DHT22;30476;53.468;9.826;2023-11-19T05:36:11;10.90;99.90
44166;DHT22;30476;53.468;9.826;2023-11-19T05:38:37;11.00;99.90
44166;DHT22;30476;53.468;9.826;2023-11-19T05:41:03;11.00;99.90
44166;DHT22;30476;53.468;9.826;2023-11-19T05:43:31;11.10;99.90
44166;DHT22;30476;53.468;9.826;2023-11-19T05:45:56;11.10;99.90
44166;DHT22;30476;53.468;9.826;2023-11-19T05:48:22;11.20;99.90
44166;DHT22;30476;53.468;9.826;2023-11-19T05:50:48;11.20;99.90
44166;DHT22;30476;53.468;9.826;2023-11-19T05:53:15;11.30;99.90
44166;DHT22;30476;53.468;9.826;2023-11-19T05:55:41;11.30;99.90
44166;DHT22;30476;53.468;9.826;2023-11-19T05:58:25;11.30;99.90
44166;DHT22;30476;53.468;9.826;2023-11-19T06:00:55;11.40;99.90
44166;DHT22;30476;53.468;9.826;2023-11-19T06:03:22;11.40;99.90
44166;DHT22;30476;53.468;9.826;2023-11-19T06:05:48;11.50;99.90
44166;DHT22;30476;53.468;9.826;2023-11-19T06:08:14;11.50;99.90
44166;DHT22;30476;53.468;9.826;2023-11-19T06:10:41;11.50;99.90
44166;DHT22;30476;53.468;9.826;2023-11-19T06:13:07;11.60;99.90
44166;DHT22;30476;53.468;9.826;2023-11-19T06:15:35;11.60;99.90
44166;DHT22;30476;53.468;9.826;2023-11-19T06:18:02;11.60;99.90
44166;DHT22;30476;53.468;9.826;2023-11-19T06:20:29;11.70;99.90
44166;DHT22;30476;53.468;9.826;2023-11-19T06:22:56;11.70;99.90
44166;DHT22;30476;53.468;9.826;2023-11-19T06:25:22;11.80;99.90
44166;DHT22;30476;53.468;9.826;2023-11-19T06:27:50;11.80;99.90
44166;DHT22;30476;53.468;9.826;2023-11-19T06:30:15;11.90;99.90
44166;DHT22;30476;53.468;9.826;2023-11-19T06:32:42;11.90;99.90
44166;DHT22;30476;53.468;9.826;2023-11-19T06:35:08;12.00;99.90
44166;DHT22;30476;53.468;9.826;2023-11-19T06:37:34;12.00;99.90
44166;DHT22;30476;53.468;9.826;2023-11-19T06:39:59;12.00;99.90
44166;DHT22;30476;53.468;9.826;2023-11-19T06:42:25;12.00;99.90
44166;DHT22;30476;53.468;9.826;2023-11-19T06:44:51;12.00;99.90
44166;DHT22;30476;53.468;9.826;2023-11-19T06:47:17;12.10;99.90
44166;DHT22;30476;53.468;9.826;2023-11-19T06:49:46;12.00;99.90
44166;DHT22;30476;53.468;9.826;2023-11-19T06:52:12;12.20;99.90
44166;DHT22;30476;53.468;9.826;2023-11-19T06:54:39;12.10;99.90
44166;DHT22;30476;53.468;9.826;2023-11-19T06:57:05;12.20;99.90
44166;DHT22;30476;53.468;9.826;2023-11-19T06:59:31;12.20;99.90
44166;DHT22;30476;53.468;9.826;2023-11-19T07:01:56;12.20;99.90
44166;DHT22;30476;53.468;9.826;2023-11-19T07:04:22;12.20;99.90
44166;DHT22;30476;53.468;9.826;2023-11-19T07:06:48;12.20;99.90
44166;DHT22;30476;53.468;9.826;2023-11-19T07:09:14;12.20;99.90
44166;DHT22;30476;53.468;9.826;2023-11-19T07:11:41;12.30;99.90
44166;DHT22;30476;53.468;9.826;2023-11-19T07:14:08;12.20;99.90
44166;DHT22;30476;53.468;9.826;2023-11-19T07:16:34;12.20;99.90
44166;DHT22;30476;53.468;9.826;2023-11-19T07:19:03;12.30;99.90
44166;DHT22;30476;53.468;9.826;2023-11-19T07:21:29;12.30;99.90
44166;DHT22;30476;53.468;9.826;2023-11-19T07:23:55;12.30;99.90
44166;DHT22;30476;53.468;9.826;2023-11-19T07:26:22;12.30;99.90
44166;DHT22;30476;53.468;9.826;2023-11-19T07:28:48;12.30;99.90
44166;DHT22;30476;53.468;9.826;2023-11-19T07:31:14;12.40;99.90
44166;DHT22;30476;53.468;9.826;2023-11-19T07:33:40;12.40;99.90
44166;DHT22;30476;53.468;9.826;2023-11-19T07:36:09;12.40;99.90
44166;DHT22;30476;53.468;9.826;2023-11-19T07:38:35;12.40;99.90
44166;DHT22;30476;53.468;9.826;2023-11-19T07:41:01;12.40;99.90
44166;DHT22;30476;53.468;9.826;2023-11-19T07:43:27;12.40;99.90
44166;DHT22;30476;53.468;9.826;2023-11-19T07:45:52;12.40;99.90
44166;DHT22;30476;53.468;9.826;2023-11-19T07:48:18;12.50;99.90
44166;DHT22;30476;53.468;9.826;2023-11-19T07:50:49;12.40;99.90
44166;DHT22;30476;53.468;9.826;2023-11-19T07:53:19;12.50;99.90
44166;DHT22;30476;53.468;9.826;2023-11-19T07:55:45;12.50;99.90
44166;DHT22;30476;53.468;9.826;2023-11-19T07:58:12;12.50;99.90
44166;DHT22;30476;53.468;9.826;2023-11-19T08:00:38;12.50;99.90
44166;DHT22;30476;53.468;9.826;2023-11-19T08:03:04;12.50;99.90
44166;DHT22;30476;53.468;9.826;2023-11-19T08:05:33;12.50;99.90
44166;DHT22;30476;53.468;9.826;2023-11-19T08:07:59;12.50;99.90
44166;DHT22;30476;53.468;9.826;2023-11-19T08:10:24;12.50;99.90
44166;DHT22;30476;53.468;9.826;2023-11-19T08:12:50;12.50;99.90
44166;DHT22;30476;53.468;9.826;2023-11-19T08:15:16;12.50;99.90
44166;DHT22;30476;53.468;9.826;2023-11-19T08:17:42;12.40;99.90
44166;DHT22;30476;53.468;9.826;2023-11-19T08:20:09;12.50;99.90
44166;DHT22;30476;53.468;9.826;2023-11-19T08:22:39;12.50;99.90
44166;DHT22;30476;53.468;9.826;2023-11-19T08:25:05;12.50;99.90
44166;DHT22;30476;53.468;9.826;2023-11-19T08:27:31;12.50;99.90
44166;DHT22;30476;53.468;9.826;2023-11-19T08:29:57;12.50;99.90
44166;DHT22;30476;53.468;9.826;2023-11-19T08:32:26;12.50;99.90
44166;DHT22;30476;53.468;9.826;2023-11-19T08:34:53;12.50;99.90
44166;DHT22;30476;53.468;9.826;2023-11-19T08:37:19;12.50;99.90
44166;DHT22;30476;53.468;9.826;2023-11-19T08:39:47;12.50;99.90
44166;DHT22;30476;53.468;9.826;2023-11-19T08:42:13;12.60;99.90
44166;DHT22;30476;53.468;9.826;2023-11-19T08:44:39;12.50;99.90
44166;DHT22;30476;53.468;9.826;2023-11-19T08:47:12;12.50;99.90
44166;DHT22;30476;53.468;9.826;2023-11-19T08:49:39;12.60;99.90
44166;DHT22;30476;53.468;9.826;2023-11-19T08:52:05;12.60;99.90
44166;DHT22;30476;53.468;9.826;2023-11-19T08:54:33;12.60;99.90
44166;DHT22;30476;53.468;9.826;2023-11-19T08:56:59;12.60;99.90
44166;DHT22;30476;53.468;9.826;2023-11-19T08:59:25;12.60;99.90
44166;DHT22;30476;53.468;9.826;2023-11-19T09:01:51;12.60;99.90
44166;DHT22;30476;53.468;9.826;2023-11-19T09:04:17;12.60;99.90
44166;DHT22;30476;53.468;9.826;2023-11-19T09:06:42;12.60;99.90
44166;DHT22;30476;53.468;9.826;2023-11-19T09:09:09;12.60;99.90
44166;DHT22;30476;53.468;9.826;2023-11-19T09:11:35;12.60;99.90
44166;DHT22;30476;53.468;9.826;2023-11-19T09:14:02;12.60;99.90
44166;DHT22;30476;53.468;9.826;2023-11-19T09:16:28;12.60;99.90
44166;DHT22;30476;53.468;9.826;2023-11-19T09:18:53;12.60;99.90
44166;DHT22;30476;53.468;9.826;2023-11-19T09:21:19;12.60;99.90
44166;DHT22;30476;53.468;9.826;2023-11-19T09:23:45;12.60;99.90
44166;DHT22;30476;53.468;9.826;2023-11-19T09:26:13;12.60;99.90
44166;DHT22;30476;53.468;9.826;2023-11-19T09:28:39;12.60;99.90
44166;DHT22;30476;53.468;9.826;2023-11-19T09:31:17;12.60;99.90
44166;DHT22;30476;53.468;9.826;2023-11-19T09:33:43;12.60;99.90
44166;DHT22;30476;53.468;9.826;2023-11-19T09:36:11;12.60;99.90
44166;DHT22;30476;53.468;9.826;2023-11-19T09:38:40;12.60;99.90
44166;DHT22;30476;53.468;9.826;2023-11-19T09:41:06;12.60;99.90
44166;DHT22;30476;53.468;9.826;2023-11-19T09:43:38;12.70;99.90
44166;DHT22;30476;53.468;9.826;2023-11-19T09:46:05;12.60;99.90
44166;DHT22;30476;53.468;9.826;2023-11-19T09:48:37;12.60;99.90
44166;DHT22;30476;53.468;9.826;2023-11-19T09:51:04;12.60;99.90
44166;DHT22;30476;53.468;9.826;2023-11-19T09:53:31;12.70;99.90
44166;DHT22;30476;53.468;9.826;2023-11-19T09:55:59;12.70;99.90
44166;DHT22;30476;53.468;9.826;2023-11-19T09:58:26;12.70;99.90
44166;DHT22;30476;53.468;9.826;2023-11-19T10:00:52;12.80;99.90
44166;DHT22;30476;53.468;9.826;2023-11-19T10:03:18;12.80;99.90
44166;DHT22;30476;53.468;9.826;2023-11-19T10:05:44;12.80;99.90
44166;DHT22;30476;53.468;9.826;2023-11-19T10:08:09;12.80;99.90
44166;DHT22;30476;53.468;9.826;2023-11-19T10:10:37;12.80;99.90
44166;DHT22;30476;53.468;9.826;2023-11-19T10:13:03;12.80;99.90
44166;DHT22;30476;53.468;9.826;2023-11-19T10:15:36;12.80;99.90
44166;DHT22;30476;53.468;9.826;2023-11-19T10:18:02;12.80;99.90
44166;DHT22;30476;53.468;9.826;2023-11-19T10:20:41;12.80;99.90
44166;DHT22;30476;53.468;9.826;2023-11-19T10:23:07;12.80;99.90
44166;DHT22;30476;53.468;9.826;2023-11-19T10:25:33;12.80;99.90
44166;DHT22;30476;53.468;9.826;2023-11-19T10:27:59;12.80;99.90
44166;DHT22;30476;53.468;9.826;2023-11-19T10:30:27;12.80;99.90
44166;DHT22;30476;53.468;9.826;2023-11-19T10:35:50;12.80;99.90
44166;DHT22;30476;53.468;9.826;2023-11-19T10:38:17;12.80;99.90
44166;DHT22;30476;53.468;9.826;2023-11-19T10:40:43;12.70;99.90
44166;DHT22;30476;53.468;9.826;2023-11-19T10:43:09;12.80;99.90
44166;DHT22;30476;53.468;9.826;2023-11-19T10:45:39;12.80;99.90
44166;DHT22;30476;53.468;9.826;2023-11-19T10:48:06;12.80;99.90
44166;DHT22;30476;53.468;9.826;2023-11-19T10:50:40;12.80;99.90
44166;DHT22;30476;53.468;9.826;2023-11-19T10:53:07;12.80;99.90
44166;DHT22;30476;53.468;9.826;2023-11-19T10:55:35;12.80;99.90
44166;DHT22;30476;53.468;9.826;2023-11-19T11:00:29;12.80;99.90
44166;DHT22;30476;53.468;9.826;2023-11-19T11:03:00;12.70;99.90
44166;DHT22;30476;53.468;9.826;2023-11-19T11:05:26;12.80;99.90
44166;DHT22;30476;53.468;9.826;2023-11-19T11:07:55;12.80;99.90
44166;DHT22;30476;53.468;9.826;2023-11-19T11:10:24;12.80;99.90
44166;DHT22;30476;53.468;9.826;2023-11-19T11:12:52;12.80;99.90
44166;DHT22;30476;53.468;9.826;2023-11-19T11:15:26;12.80;99.90
44166;DHT22;30476;53.468;9.826;2023-11-19T11:17:57;12.80;99.90
44166;DHT22;30476;53.468;9.826;2023-11-19T11:20:25;12.80;99.90
44166;DHT22;30476;53.468;9.826;2023-11-19T11:28:48;12.90;99.90
44166;DHT22;30476;53.468;9.826;2023-11-19T11:39:26;12.90;99.90
44166;DHT22;30476;53.468;9.826;2023-11-19T11:45:07;13.00;99.90
44166;DHT22;30476;53.468;9.826;2023-11-19T11:50:09;13.10;99.90
44166;DHT22;30476;53.468;9.826;2023-11-19T11:58:11;13.10;99.90
44166;DHT22;30476;53.468;9.826;2023-11-19T12:00:39;13.10;99.90
44166;DHT22;30476;53.468;9.826;2023-11-19T12:03:06;13.10;99.90
44166;DHT22;30476;53.468;9.826;2023-11-19T12:05:33;13.10;99.90
44166;DHT22;30476;53.468;9.826;2023-11-19T12:08:01;13.10;99.90
44166;DHT22;30476;53.468;9.826;2023-11-19T12:10:31;13.10;99.90
44166;DHT22;30476;53.468;9.826;2023-11-19T12:13:01;13.10;99.90
44166;DHT22;30476;53.468;9.826;2023-11-19T12:15:27;13.10;99.90
44166;DHT22;30476;53.468;9.826;2023-11-19T12:17:56;13.10;99.90
44166;DHT22;30476;53.468;9.826;2023-11-19T12:20:24;13.20;99.90
44166;DHT22;30476;53.468;9.826;2023-11-19T12:22:51;13.20;99.90
44166;DHT22;30476;53.468;9.826;2023-11-19T12:25:17;13.20;99.90
44166;DHT22;30476;53.468;9.826;2023-11-19T12:30:11;13.30;99.90
44166;DHT22;30476;53.468;9.826;2023-11-19T12:32:42;13.30;99.90
44166;DHT22;30476;53.468;9.826;2023-11-19T12:35:09;13.30;99.90
44166;DHT22;30476;53.468;9.826;2023-11-19T12:37:45;13.30;99.90
44166;DHT22;30476;53.468;9.826;2023-11-19T12:40:16;13.30;99.90
44166;DHT22;30476;53.468;9.826;2023-11-19T12:42:44;13.30;99.90
44166;DHT22;30476;53.468;9.826;2023-11-19T12:45:10;13.30;99.90
44166;DHT22;30476;53.468;9.826;2023-11-19T12:47:40;13.40;99.90
44166;DHT22;30476;53.468;9.826;2023-11-19T12:50:07;13.30;99.90
44166;DHT22;30476;53.468;9.826;2023-11-19T12:52:34;13.30;99.90
44166;DHT22;30476;53.468;9.826;2023-11-19T12:55:01;13.30;99.90
44166;DHT22;30476;53.468;9.826;2023-11-19T12:57:37;13.40;99.90
44166;DHT22;30476;53.468;9.826;2023-11-19T13:00:04;13.40;99.90
44166;DHT22;30476;53.468;9.826;2023-11-19T13:02:48;13.40;99.90
44166;DHT22;30476;53.468;9.826;2023-11-19T13:05:27;13.30;99.90
44166;DHT22;30476;53.468;9.826;2023-11-19T13:08:07;13.30;99.90
44166;DHT22;30476;53.468;9.826;2023-11-19T13:13:16;13.40;99.90
44166;DHT22;30476;53.468;9.826;2023-11-19T13:15:42;13.50;99.90
44166;DHT22;30476;53.468;9.826;2023-11-19T13:18:10;13.60;99.90
44166;DHT22;30476;53.468;9.826;2023-11-19T13:20:36;13.60;99.90
44166;DHT22;30476;53.468;9.826;2023-11-19T13:23:04;13.70;99.90
44166;DHT22;30476;53.468;9.826;2023-11-19T13:25:31;13.70;99.90
44166;DHT22;30476;53.468;9.826;2023-11-19T13:28:00;13.80;99.90
44166;DHT22;30476;53.468;9.826;2023-11-19T13:30:26;13.80;99.90
44166;DHT22;30476;53.468;9.826;2023-11-19T13:32:52;13.90;99.90
44166;DHT22;30476;53.468;9.826;2023-11-19T13:35:20;13.90;99.90
44166;DHT22;30476;53.468;9.826;2023-11-19T13:37:46;14.00;99.90
44166;DHT22;30476;53.468;9.826;2023-11-19T13:40:12;14.00;99.90
44166;DHT22;30476;53.468;9.826;2023-11-19T13:42:41;14.00;99.90
44166;DHT22;30476;53.468;9.826;2023-11-19T13:45:12;14.00;99.90
44166;DHT22;30476;53.468;9.826;2023-11-19T13:47:45;14.10;99.90
44166;DHT22;30476;53.468;9.826;2023-11-19T13:50:13;14.00;99.90
44166;DHT22;30476;53.468;9.826;2023-11-19T13:52:40;13.90;99.90
44166;DHT22;30476;53.468;9.826;2023-11-19T13:55:07;13.90;99.90
44166;DHT22;30476;53.468;9.826;2023-11-19T13:57:37;13.90;99.90
44166;DHT22;30476;53.468;9.826;2023-11-19T14:00:05;13.80;99.90
44166;DHT22;30476;53.468;9.826;2023-11-19T14:02:42;13.80;99.90
44166;DHT22;30476;53.468;9.826;2023-11-19T14:05:11;13.70;99.90
44166;DHT22;30476;53.468;9.826;2023-11-19T14:07:38;13.70;99.90
44166;DHT22;30476;53.468;9.826;2023-11-19T14:10:04;13.60;99.90
44166;DHT22;30476;53.468;9.826;2023-11-19T14:12:32;13.60;99.90
44166;DHT22;30476;53.468;9.826;2023-11-19T14:14:58;13.60;99.90
44166;DHT22;30476;53.468;9.826;2023-11-19T14:17:25;13.50;99.90
44166;DHT22;30476;53.468;9.826;2023-11-19T14:19:51;13.50;99.90
44166;DHT22;30476;53.468;9.826;2023-11-19T14:22:17;13.50;99.90
44166;DHT22;30476;53.468;9.826;2023-11-19T14:24:43;13.40;99.90
44166;DHT22;30476;53.468;9.826;2023-11-19T14:27:10;13.40;99.90
44166;DHT22;30476;53.468;9.826;2023-11-19T14:29:36;13.40;99.90
44166;DHT22;30476;53.468;9.826;2023-11-19T14:32:03;13.30;99.90
44166;DHT22;30476;53.468;9.826;2023-11-19T14:34:30;13.30;99.90
44166;DHT22;30476;53.468;9.826;2023-11-19T14:36:56;13.30;99.90
44166;DHT22;30476;53.468;9.826;2023-11-19T14:39:22;13.30;99.90
44166;DHT22;30476;53.468;9.826;2023-11-19T14:41:48;13.20;99.90
44166;DHT22;30476;53.468;9.826;2023-11-19T14:44:15;13.20;99.90
44166;DHT22;30476;53.468;9.826;2023-11-19T14:46:41;13.10;99.90
44166;DHT22;30476;53.468;9.826;2023-11-19T14:49:06;13.10;99.90
44166;DHT22;30476;53.468;9.826;2023-11-19T14:51:36;13.10;99.90
44166;DHT22;30476;53.468;9.826;2023-11-19T14:54:04;13.10;99.90
44166;DHT22;30476;53.468;9.826;2023-11-19T14:56:30;13.00;99.90
44166;DHT22;30476;53.468;9.826;2023-11-19T14:58:55;12.90;99.90
44166;DHT22;30476;53.468;9.826;2023-11-19T15:01:21;12.90;99.90
44166;DHT22;30476;53.468;9.826;2023-11-19T15:03:47;12.80;99.90
44166;DHT22;30476;53.468;9.826;2023-11-19T15:06:13;12.80;99.90
44166;DHT22;30476;53.468;9.826;2023-11-19T15:08:38;12.80;99.90
44166;DHT22;30476;53.468;9.826;2023-11-19T15:11:04;12.80;99.90
44166;DHT22;30476;53.468;9.826;2023-11-19T15:13:32;12.80;99.90
44166;DHT22;30476;53.468;9.826;2023-11-19T15:15:58;12.80;99.90
44166;DHT22;30476;53.468;9.826;2023-11-19T15:18:24;12.70;99.90
44166;DHT22;30476;53.468;9.826;2023-11-19T15:20:49;12.70;99.90
44166;DHT22;30476;53.468;9.826;2023-11-19T15:23:16;12.70;99.90
44166;DHT22;30476;53.468;9.826;2023-11-19T15:25:42;12.70;99.90
44166;DHT22;30476;53.468;9.826;2023-11-19T15:28:07;12.70;99.90
44166;DHT22;30476;53.468;9.826;2023-11-19T15:30:33;12.70;99.90
44166;DHT22;30476;53.468;9.826;2023-11-19T15:32:59;12.70;99.90
44166;DHT22;30476;53.468;9.826;2023-11-19T15:35:25;12.70;99.90
44166;DHT22;30476;53.468;9.826;2023-11-19T15:37:51;12.60;99.90
44166;DHT22;30476;53.468;9.826;2023-11-19T15:40:18;12.70;99.90
44166;DHT22;30476;53.468;9.826;2023-11-19T15:42:43;12.60;99.90
44166;DHT22;30476;53.468;9.826;2023-11-19T15:45:11;12.60;99.90
44166;DHT22;30476;53.468;9.826;2023-11-19T15:47:37;12.60;99.90
44166;DHT22;30476;53.468;9.826;2023-11-19T15:50:05;12.60;99.90
44166;DHT22;30476;53.468;9.826;2023-11-19T15:52:31;12.60;99.90
44166;DHT22;30476;53.468;9.826;2023-11-19T15:54:57;12.60;99.90
44166;DHT22;30476;53.468;9.826;2023-11-19T15:57:23;12.60;99.90
44166;DHT22;30476;53.468;9.826;2023-11-19T15:59:49;12.60;99.90
44166;DHT22;30476;53.468;9.826;2023-11-19T16:02:16;12.50;99.90
44166;DHT22;30476;53.468;9.826;2023-11-19T16:04:42;12.50;99.90
44166;DHT22;30476;53.468;9.826;2023-11-19T16:07:13;12.50;99.90
44166;DHT22;30476;53.468;9.826;2023-11-19T16:09:39;12.50;99.90
44166;DHT22;30476;53.468;9.826;2023-11-19T16:12:07;12.50;99.90